sensor_id;sensor_type;location;lat;lon;timestamp;pressure;altitude;pressure_sealevel;temperature;humidity
74594;BME280;63097;51.872;4.460;2023-07-29T00:00:29;100910.50;;;16.39;100.00
74594;BME280;63097;51.872;4.460;2023-07-29T00:02:55;100905.69;;;16.44;100.00
74594;BME280;63097;51.872;4.460;2023-07-29T00:05:20;100891.22;;;16.22;100.00
74594;BME280;63097;51.872;4.460;2023-07-29T00:07:45;100904.00;;;16.43;100.00
74594;BME280;63097;51.872;4.460;2023-07-29T00:10:11;100896.00;;;16.22;100.00
74594;BME280;63097;51.872;4.460;2023-07-29T00:12:36;100880.00;;;16.22;100.00
74594;BME280;63097;51.872;4.460;2023-07-29T00:15:01;100900.72;;;16.26;100.00
74594;BME280;63097;51.872;4.460;2023-07-29T00:17:26;100874.47;;;16.07;100.00
74594;BME280;63097;51.872;4.460;2023-07-29T00:19:52;100900.47;;;16.28;100.00
74594;BME280;63097;51.872;4.460;2023-07-29T00:22:17;100869.41;;;16.09;100.00
74594;BME280;63097;51.872;4.460;2023-07-29T00:24:42;100887.81;;;16.25;100.00
74594;BME280;63097;51.872;4.460;2023-07-29T00:27:08;100887.78;;;16.35;100.00
74594;BME280;63097;51.872;4.460;2023-07-29T00:29:33;100889.44;;;16.36;100.00
74594;BME280;63097;51.872;4.460;2023-07-29T00:31:58;100886.13;;;16.29;100.00
74594;BME280;63097;51.872;4.460;2023-07-29T00:34:24;100883.25;;;16.39;100.00
74594;BME280;63097;51.872;4.460;2023-07-29T00:36:49;100891.22;;;16.71;100.00
74594;BME280;63097;51.872;4.460;2023-07-29T00:39:14;100879.28;;;16.50;100.00
74594;BME280;63097;51.872;4.460;2023-07-29T00:41:39;100896.41;;;16.49;100.00
74594;BME280;63097;51.872;4.460;2023-07-29T00:44:05;100886.00;;;16.54;100.00
74594;BME280;63097;51.872;4.460;2023-07-29T00:46:32;100878.06;;;16.61;100.00
74594;BME280;63097;51.872;4.460;2023-07-29T00:48:58;100885.88;;;16.69;100.00
74594;BME280;63097;51.872;4.460;2023-07-29T00:51:25;100891.47;;;16.74;100.00
74594;BME280;63097;51.872;4.460;2023-07-29T00:53:50;100886.13;;;16.73;100.00
74594;BME280;63097;51.872;4.460;2023-07-29T00:56:15;100888.16;;;16.67;100.00
74594;BME280;63097;51.872;4.460;2023-07-29T00:58:41;100873.91;;;16.54;100.00
74594;BME280;63097;51.872;4.460;2023-07-29T01:01:07;100885.94;;;16.64;100.00
74594;BME280;63097;51.872;4.460;2023-07-29T01:03:33;100883.63;;;16.71;100.00
74594;BME280;63097;51.872;4.460;2023-07-29T01:06:14;100876.84;;;16.77;100.00
74594;BME280;63097;51.872;4.460;2023-07-29T01:08:55;100876.88;;;16.72;100.00
74594;BME280;63097;51.872;4.460;2023-07-29T01:11:57;100871.66;;;16.56;100.00
74594;BME280;63097;51.872;4.460;2023-07-29T01:17:03;100879.81;;;16.52;100.00
74594;BME280;63097;51.872;4.460;2023-07-29T01:22:07;100850.94;;;16.42;100.00
74594;BME280;63097;51.872;4.460;2023-07-29T01:24:32;100865.97;;;16.66;100.00
74594;BME280;63097;51.872;4.460;2023-07-29T01:26:58;100871.34;;;16.62;100.00
74594;BME280;63097;51.872;4.460;2023-07-29T01:29:23;100868.03;;;16.45;100.00
74594;BME280;63097;51.872;4.460;2023-07-29T01:31:54;100868.09;;;16.40;100.00
74594;BME280;63097;51.872;4.460;2023-07-29T01:34:37;100871.09;;;16.59;100.00
74594;BME280;63097;51.872;4.460;2023-07-29T01:37:07;100860.22;;;16.47;100.00
74594;BME280;63097;51.872;4.460;2023-07-29T01:39:38;100863.88;;;16.38;100.00
74594;BME280;63097;51.872;4.460;2023-07-29T01:42:04;100835.09;;;16.17;100.00
74594;BME280;63097;51.872;4.460;2023-07-29T01:44:29;100857.84;;;16.16;100.00
74594;BME280;63097;51.872;4.460;2023-07-29T01:46:56;100856.22;;;16.09;100.00
74594;BME280;63097;51.872;4.460;2023-07-29T01:49:22;100864.50;;;16.30;100.00
74594;BME280;63097;51.872;4.460;2023-07-29T01:51:47;100854.91;;;16.36;100.00
74594;BME280;63097;51.872;4.460;2023-07-29T01:54:12;100835.56;;;16.34;100.00
74594;BME280;63097;51.872;4.460;2023-07-29T01:56:38;100849.63;;;16.29;100.00
74594;BME280;63097;51.872;4.460;2023-07-29T01:59:03;100848.78;;;16.29;100.00
74594;BME280;63097;51.872;4.460;2023-07-29T02:01:28;100821.69;;;16.09;100.00
74594;BME280;63097;51.872;4.460;2023-07-29T02:03:54;100848.78;;;16.29;100.00
74594;BME280;63097;51.872;4.460;2023-07-29T02:06:19;100842.63;;;16.27;100.00
74594;BME280;63097;51.872;4.460;2023-07-29T02:08:44;100847.38;;;16.31;100.00
74594;BME280;63097;51.872;4.460;2023-07-29T02:11:10;100823.31;;;16.20;100.00
74594;BME280;63097;51.872;4.460;2023-07-29T02:13:35;100836.72;;;16.28;99.99
74594;BME280;63097;51.872;4.460;2023-07-29T02:16:00;100837.81;;;16.32;99.72
74594;BME280;63097;51.872;4.460;2023-07-29T02:18:25;100843.69;;;16.36;99.19
74594;BME280;63097;51.872;4.460;2023-07-29T02:20:51;100831.34;;;16.32;99.34
74594;BME280;63097;51.872;4.460;2023-07-29T02:23:16;100828.91;;;16.20;100.00
74594;BME280;63097;51.872;4.460;2023-07-29T02:25:41;100816.28;;;16.18;100.00
74594;BME280;63097;51.872;4.460;2023-07-29T02:28:07;100828.31;;;16.23;100.00
74594;BME280;63097;51.872;4.460;2023-07-29T02:30:32;100793.78;;;16.28;98.82
74594;BME280;63097;51.872;4.460;2023-07-29T02:32:57;100811.44;;;16.28;99.90
74594;BME280;63097;51.872;4.460;2023-07-29T02:35:22;100814.50;;;16.32;99.46
74594;BME280;63097;51.872;4.460;2023-07-29T02:37:48;100810.13;;;16.21;100.00
74594;BME280;63097;51.872;4.460;2023-07-29T02:40:13;100798.34;;;16.19;100.00
74594;BME280;63097;51.872;4.460;2023-07-29T02:42:38;100790.88;;;15.99;100.00
74594;BME280;63097;51.872;4.460;2023-07-29T02:45:04;100791.72;;;15.99;100.00
74594;BME280;63097;51.872;4.460;2023-07-29T02:47:29;100817.41;;;16.22;100.00
74594;BME280;63097;51.872;4.460;2023-07-29T02:49:55;100798.72;;;16.02;100.00
74594;BME280;63097;51.872;4.460;2023-07-29T02:52:20;100811.13;;;16.35;99.41
74594;BME280;63097;51.872;4.460;2023-07-29T02:54:45;100827.72;;;16.31;99.95
74594;BME280;63097;51.872;4.460;2023-07-29T02:57:11;100825.47;;;16.28;100.00
74594;BME280;63097;51.872;4.460;2023-07-29T02:59:36;100821.00;;;16.27;100.00
74594;BME280;63097;51.872;4.460;2023-07-29T03:02:01;100828.28;;;16.33;100.00
74594;BME280;63097;51.872;4.460;2023-07-29T03:04:27;100833.19;;;16.56;98.82
74594;BME280;63097;51.872;4.460;2023-07-29T03:06:52;100816.19;;;16.33;99.18
74594;BME280;63097;51.872;4.460;2023-07-29T03:09:17;100829.94;;;16.34;99.85
74594;BME280;63097;51.872;4.460;2023-07-29T03:11:43;100833.59;;;16.35;99.85
74594;BME280;63097;51.872;4.460;2023-07-29T03:14:08;100824.00;;;16.41;99.66
74594;BME280;63097;51.872;4.460;2023-07-29T03:16:33;100802.06;;;16.43;98.85
74594;BME280;63097;51.872;4.460;2023-07-29T03:18:59;100809.19;;;16.30;99.75
74594;BME280;63097;51.872;4.460;2023-07-29T03:21:24;100827.44;;;16.33;100.00
74594;BME280;63097;51.872;4.460;2023-07-29T03:23:49;100835.50;;;16.39;100.00
74594;BME280;63097;51.872;4.460;2023-07-29T03:26:14;100834.75;;;16.29;100.00
74594;BME280;63097;51.872;4.460;2023-07-29T03:28:42;100832.53;;;16.26;100.00
74594;BME280;63097;51.872;4.460;2023-07-29T03:31:07;100808.47;;;16.15;100.00
74594;BME280;63097;51.872;4.460;2023-07-29T03:33:33;100810.13;;;16.16;100.00
74594;BME280;63097;51.872;4.460;2023-07-29T03:35:58;100831.03;;;16.38;100.00
74594;BME280;63097;51.872;4.460;2023-07-29T03:38:24;100839.13;;;16.50;99.87
74594;BME280;63097;51.872;4.460;2023-07-29T03:40:50;100827.59;;;16.51;99.33
74594;BME280;63097;51.872;4.460;2023-07-29T03:43:15;100827.19;;;16.29;100.00
74594;BME280;63097;51.872;4.460;2023-07-29T03:45:41;100832.69;;;16.39;100.00
74594;BME280;63097;51.872;4.460;2023-07-29T03:48:07;100834.75;;;16.29;100.00
74594;BME280;63097;51.872;4.460;2023-07-29T03:50:35;100839.75;;;16.37;100.00
74594;BME280;63097;51.872;4.460;2023-07-29T03:53:01;100833.47;;;16.55;100.00
74594;BME280;63097;51.872;4.460;2023-07-29T03:55:27;100829.88;;;16.44;100.00
74594;BME280;63097;51.872;4.460;2023-07-29T03:57:52;100829.28;;;16.52;100.00
74594;BME280;63097;51.872;4.460;2023-07-29T04:00:18;100804.06;;;16.37;100.00
74594;BME280;63097;51.872;4.460;2023-07-29T04:02:43;100833.22;;;16.51;100.00
74594;BME280;63097;51.872;4.460;2023-07-29T04:05:08;100832.09;;;16.52;100.00
74594;BME280;63097;51.872;4.460;2023-07-29T04:07:37;100808.59;;;16.38;100.00
74594;BME280;63097;51.872;4.460;2023-07-29T04:10:03;100835.50;;;16.44;100.00
74594;BME280;63097;51.872;4.460;2023-07-29T04:12:28;100821.16;;;16.46;100.00
74594;BME280;63097;51.872;4.460;2023-07-29T04:14:53;100828.78;;;16.40;100.00
74594;BME280;63097;51.872;4.460;2023-07-29T04:17:19;100833.78;;;16.53;100.00
74594;BME280;63097;51.872;4.460;2023-07-29T04:19:44;100828.19;;;16.48;100.00
74594;BME280;63097;51.872;4.460;2023-07-29T04:22:09;100808.22;;;16.45;100.00
74594;BME280;63097;51.872;4.460;2023-07-29T04:24:35;100830.31;;;16.66;100.00
74594;BME280;63097;51.872;4.460;2023-07-29T04:27:00;100826.00;;;16.74;99.74
74594;BME280;63097;51.872;4.460;2023-07-29T04:29:25;100817.94;;;16.67;100.00
74594;BME280;63097;51.872;4.460;2023-07-29T04:31:51;100837.28;;;16.69;100.00
74594;BME280;63097;51.872;4.460;2023-07-29T04:34:20;100828.00;;;16.73;99.65
74594;BME280;63097;51.872;4.460;2023-07-29T04:36:46;100858.59;;;16.75;100.00
74594;BME280;63097;51.872;4.460;2023-07-29T04:39:11;100856.66;;;16.70;100.00
74594;BME280;63097;51.872;4.460;2023-07-29T04:41:37;100845.16;;;16.67;100.00
74594;BME280;63097;51.872;4.460;2023-07-29T04:44:02;100845.97;;;16.72;100.00
74594;BME280;63097;51.872;4.460;2023-07-29T04:46:28;100840.66;;;16.71;100.00
74594;BME280;63097;51.872;4.460;2023-07-29T04:48:53;100828.81;;;16.74;100.00
74594;BME280;63097;51.872;4.460;2023-07-29T04:51:18;100849.81;;;16.86;99.94
74594;BME280;63097;51.872;4.460;2023-07-29T04:53:44;100848.94;;;16.86;100.00
74594;BME280;63097;51.872;4.460;2023-07-29T04:56:09;100858.22;;;16.86;100.00
74594;BME280;63097;51.872;4.460;2023-07-29T04:58:34;100843.53;;;16.94;99.61
74594;BME280;63097;51.872;4.460;2023-07-29T05:01:00;100836.25;;;16.93;99.99
74594;BME280;63097;51.872;4.460;2023-07-29T05:03:25;100834.00;;;16.90;100.00
74594;BME280;63097;51.872;4.460;2023-07-29T05:05:50;100829.72;;;16.98;99.35
74594;BME280;63097;51.872;4.460;2023-07-29T05:08:16;100841.19;;;17.06;99.26
74594;BME280;63097;51.872;4.460;2023-07-29T05:10:41;100845.16;;;17.00;99.65
74594;BME280;63097;51.872;4.460;2023-07-29T05:13:07;100829.22;;;16.91;100.00
74594;BME280;63097;51.872;4.460;2023-07-29T05:15:32;100822.44;;;16.97;100.00
74594;BME280;63097;51.872;4.460;2023-07-29T05:17:57;100817.00;;;17.05;99.89
74594;BME280;63097;51.872;4.460;2023-07-29T05:20:23;100793.94;;;16.80;100.00
74594;BME280;63097;51.872;4.460;2023-07-29T05:22:48;100813.94;;;17.02;100.00
74594;BME280;63097;51.872;4.460;2023-07-29T05:25:13;100822.53;;;17.16;99.29
74594;BME280;63097;51.872;4.460;2023-07-29T05:27:38;100826.91;;;17.27;98.53
74594;BME280;63097;51.872;4.460;2023-07-29T05:30:04;100830.28;;;17.29;99.81
74594;BME280;63097;51.872;4.460;2023-07-29T05:32:30;100827.16;;;17.30;99.72
74594;BME280;63097;51.872;4.460;2023-07-29T05:34:55;100804.69;;;17.25;99.80
74594;BME280;63097;51.872;4.460;2023-07-29T05:37:20;100821.28;;;17.55;97.43
74594;BME280;63097;51.872;4.460;2023-07-29T05:39:46;100820.22;;;17.46;98.23
74594;BME280;63097;51.872;4.460;2023-07-29T05:42:11;100800.22;;;17.24;98.72
74594;BME280;63097;51.872;4.460;2023-07-29T05:44:36;100845.19;;;17.53;98.82
74594;BME280;63097;51.872;4.460;2023-07-29T05:47:02;100824.69;;;17.52;98.87
74594;BME280;63097;51.872;4.460;2023-07-29T05:49:27;100846.44;;;17.65;98.25
74594;BME280;63097;51.872;4.460;2023-07-29T05:51:52;100849.69;;;17.54;98.12
74594;BME280;63097;51.872;4.460;2023-07-29T05:54:18;100839.94;;;17.70;98.05
74594;BME280;63097;51.872;4.460;2023-07-29T05:56:43;100820.56;;;17.68;97.83
74594;BME280;63097;51.872;4.460;2023-07-29T05:59:09;100833.66;;;17.96;96.59
74594;BME280;63097;51.872;4.460;2023-07-29T06:01:34;100844.78;;;17.88;96.29
74594;BME280;63097;51.872;4.460;2023-07-29T06:03:59;100848.44;;;17.88;97.32
74594;BME280;63097;51.872;4.460;2023-07-29T06:06:25;100849.50;;;17.92;97.37
74594;BME280;63097;51.872;4.460;2023-07-29T06:08:50;100833.66;;;17.96;96.42
74594;BME280;63097;51.872;4.460;2023-07-29T06:11:15;100841.53;;;17.99;97.07
74594;BME280;63097;51.872;4.460;2023-07-29T06:13:41;100839.47;;;18.05;96.49
74594;BME280;63097;51.872;4.460;2023-07-29T06:16:06;100840.38;;;18.00;97.85
74594;BME280;63097;51.872;4.460;2023-07-29T06:18:31;100838.53;;;17.91;97.19
74594;BME280;63097;51.872;4.460;2023-07-29T06:20:57;100850.41;;;17.88;97.20
74594;BME280;63097;51.872;4.460;2023-07-29T06:23:22;100853.44;;;17.91;97.14
74594;BME280;63097;51.872;4.460;2023-07-29T06:25:48;100838.84;;;17.89;97.55
74594;BME280;63097;51.872;4.460;2023-07-29T06:28:13;100828.81;;;18.02;96.59
74594;BME280;63097;51.872;4.460;2023-07-29T06:30:39;100850.91;;;18.14;96.22
74594;BME280;63097;51.872;4.460;2023-07-29T06:33:04;100828.38;;;18.32;96.21
74594;BME280;63097;51.872;4.460;2023-07-29T06:35:29;100864.06;;;18.60;94.63
74594;BME280;63097;51.872;4.460;2023-07-29T06:37:55;100844.25;;;18.65;93.77
74594;BME280;63097;51.872;4.460;2023-07-29T06:40:20;100846.03;;;18.93;92.24
74594;BME280;63097;51.872;4.460;2023-07-29T06:42:45;100825.59;;;18.69;93.13
74594;BME280;63097;51.872;4.460;2023-07-29T06:45:12;100857.00;;;18.95;91.97
74594;BME280;63097;51.872;4.460;2023-07-29T06:47:37;100849.50;;;19.04;91.64
74594;BME280;63097;51.872;4.460;2023-07-29T06:50:03;100848.28;;;19.24;89.93
74594;BME280;63097;51.872;4.460;2023-07-29T06:52:28;100853.81;;;19.15;89.56
74594;BME280;63097;51.872;4.460;2023-07-29T06:54:54;100852.75;;;19.43;88.31
74594;BME280;63097;51.872;4.460;2023-07-29T06:57:19;100852.56;;;19.21;89.37
74594;BME280;63097;51.872;4.460;2023-07-29T06:59:44;100857.91;;;19.23;90.08
74594;BME280;63097;51.872;4.460;2023-07-29T07:02:10;100860.00;;;19.31;89.72
74594;BME280;63097;51.872;4.460;2023-07-29T07:04:35;100861.84;;;19.40;89.76
74594;BME280;63097;51.872;4.460;2023-07-29T07:07:00;100841.13;;;19.31;88.72
74594;BME280;63097;51.872;4.460;2023-07-29T07:09:25;100841.47;;;19.57;88.55
74594;BME280;63097;51.872;4.460;2023-07-29T07:11:51;100857.03;;;19.81;86.49
74594;BME280;63097;51.872;4.460;2023-07-29T07:14:16;100839.91;;;19.64;86.52
74594;BME280;63097;51.872;4.460;2023-07-29T07:16:41;100868.00;;;19.56;86.49
74594;BME280;63097;51.872;4.460;2023-07-29T07:19:07;100859.97;;;19.49;87.13
74594;BME280;63097;51.872;4.460;2023-07-29T07:21:32;100868.47;;;19.31;88.64
74594;BME280;63097;51.872;4.460;2023-07-29T07:23:57;100864.53;;;19.32;88.09
74594;BME280;63097;51.872;4.460;2023-07-29T07:26:23;100869.91;;;19.60;89.00
74594;BME280;63097;51.872;4.460;2023-07-29T07:28:50;100866.03;;;19.43;86.89
74594;BME280;63097;51.872;4.460;2023-07-29T07:31:15;100871.97;;;19.09;89.37
74594;BME280;63097;51.872;4.460;2023-07-29T07:33:40;100865.69;;;19.12;89.63
74594;BME280;63097;51.872;4.460;2023-07-29T07:36:06;100877.66;;;19.23;89.50
74594;BME280;63097;51.872;4.460;2023-07-29T07:38:31;100872.69;;;19.47;88.69
74594;BME280;63097;51.872;4.460;2023-07-29T07:40:56;100877.66;;;19.68;86.77
74594;BME280;63097;51.872;4.460;2023-07-29T07:43:22;100866.91;;;19.70;86.13
74594;BME280;63097;51.872;4.460;2023-07-29T07:45:48;100869.59;;;19.48;86.33
74594;BME280;63097;51.872;4.460;2023-07-29T07:48:13;100882.13;;;19.56;86.48
74594;BME280;63097;51.872;4.460;2023-07-29T07:50:39;100875.94;;;19.40;86.87
74594;BME280;63097;51.872;4.460;2023-07-29T07:53:04;100862.38;;;19.42;86.41
74594;BME280;63097;51.872;4.460;2023-07-29T07:55:30;100882.56;;;19.63;86.11
74594;BME280;63097;51.872;4.460;2023-07-29T07:57:55;100887.25;;;19.67;86.28
74594;BME280;63097;51.872;4.460;2023-07-29T08:00:20;100871.38;;;19.71;84.42
74594;BME280;63097;51.872;4.460;2023-07-29T08:02:46;100878.09;;;19.75;84.72
74594;BME280;63097;51.872;4.460;2023-07-29T08:05:11;100889.78;;;20.10;84.20
74594;BME280;63097;51.872;4.460;2023-07-29T08:07:36;100887.16;;;20.13;82.88
74594;BME280;63097;51.872;4.460;2023-07-29T08:10:02;100896.00;;;20.61;81.58
74594;BME280;63097;51.872;4.460;2023-07-29T08:12:27;100904.66;;;20.78;81.88
74594;BME280;63097;51.872;4.460;2023-07-29T08:14:53;100895.75;;;20.35;81.76
74594;BME280;63097;51.872;4.460;2023-07-29T08:17:18;100910.06;;;20.39;83.07
74594;BME280;63097;51.872;4.460;2023-07-29T08:19:43;100900.25;;;20.72;80.27
74594;BME280;63097;51.872;4.460;2023-07-29T08:22:09;100905.63;;;20.95;78.40
74594;BME280;63097;51.872;4.460;2023-07-29T08:24:34;100886.41;;;21.28;77.71
74594;BME280;63097;51.872;4.460;2023-07-29T08:26:59;100894.69;;;21.16;75.50
74594;BME280;63097;51.872;4.460;2023-07-29T08:29:25;100892.00;;;21.42;76.69
74594;BME280;63097;51.872;4.460;2023-07-29T08:31:50;100888.88;;;21.21;75.79
74594;BME280;63097;51.872;4.460;2023-07-29T08:34:15;100897.72;;;21.50;74.30
74594;BME280;63097;51.872;4.460;2023-07-29T08:36:41;100884.06;;;21.52;73.92
74594;BME280;63097;51.872;4.460;2023-07-29T08:39:06;100885.81;;;21.62;72.31
74594;BME280;63097;51.872;4.460;2023-07-29T08:41:37;100898.75;;;21.85;73.44
74594;BME280;63097;51.872;4.460;2023-07-29T08:44:26;100896.44;;;21.56;74.01
74594;BME280;63097;51.872;4.460;2023-07-29T08:46:55;100897.00;;;21.45;74.17
74594;BME280;63097;51.872;4.460;2023-07-29T08:49:21;100887.41;;;20.88;75.59
74594;BME280;63097;51.872;4.460;2023-07-29T08:51:47;100884.59;;;20.88;76.09
74594;BME280;63097;51.872;4.460;2023-07-29T08:54:13;100901.66;;;20.96;76.34
74594;BME280;63097;51.872;4.460;2023-07-29T08:56:41;100906.47;;;20.96;77.26
74594;BME280;63097;51.872;4.460;2023-07-29T08:59:07;100898.03;;;20.47;80.78
74594;BME280;63097;51.872;4.460;2023-07-29T09:01:33;100905.66;;;20.46;83.14
74594;BME280;63097;51.872;4.460;2023-07-29T09:03:59;100900.00;;;20.46;81.79
74594;BME280;63097;51.872;4.460;2023-07-29T09:06:24;100912.56;;;20.54;81.39
74594;BME280;63097;51.872;4.460;2023-07-29T09:08:51;100907.38;;;20.34;79.86
74594;BME280;63097;51.872;4.460;2023-07-29T09:11:17;100902.38;;;20.31;81.61
74594;BME280;63097;51.872;4.460;2023-07-29T09:13:43;100903.41;;;20.70;79.75
74594;BME280;63097;51.872;4.460;2023-07-29T09:16:08;100906.88;;;20.67;79.67
74594;BME280;63097;51.872;4.460;2023-07-29T09:18:34;100902.41;;;21.02;78.29
74594;BME280;63097;51.872;4.460;2023-07-29T09:20:59;100895.13;;;21.10;77.03
74594;BME280;63097;51.872;4.460;2023-07-29T09:23:25;100891.66;;;21.13;76.66
74594;BME280;63097;51.872;4.460;2023-07-29T09:26:00;100905.88;;;20.85;78.17
74594;BME280;63097;51.872;4.460;2023-07-29T09:28:26;100891.47;;;20.38;78.58
74594;BME280;63097;51.872;4.460;2023-07-29T09:30:51;100917.19;;;19.82;88.86
74594;BME280;63097;51.872;4.460;2023-07-29T09:33:17;100923.72;;;18.99;95.41
74594;BME280;63097;51.872;4.460;2023-07-29T09:35:44;100915.22;;;18.67;98.07
74594;BME280;63097;51.872;4.460;2023-07-29T09:38:14;100902.63;;;18.41;96.93
74594;BME280;63097;51.872;4.460;2023-07-29T09:40:40;100906.31;;;18.60;98.41
74594;BME280;63097;51.872;4.460;2023-07-29T09:43:07;100901.50;;;18.79;97.18
74594;BME280;63097;51.872;4.460;2023-07-29T09:45:34;100882.41;;;19.08;95.25
74594;BME280;63097;51.872;4.460;2023-07-29T09:48:01;100900.16;;;19.41;94.17
74594;BME280;63097;51.872;4.460;2023-07-29T09:50:27;100900.47;;;19.40;92.81
74594;BME280;63097;51.872;4.460;2023-07-29T09:52:54;100907.53;;;19.24;94.97
74594;BME280;63097;51.872;4.460;2023-07-29T09:55:21;100907.97;;;18.98;96.15
74594;BME280;63097;51.872;4.460;2023-07-29T09:57:47;100888.34;;;18.75;96.49
74594;BME280;63097;51.872;4.460;2023-07-29T10:00:13;100893.44;;;18.54;95.79
74594;BME280;63097;51.872;4.460;2023-07-29T10:02:40;100913.47;;;18.53;99.41
74594;BME280;63097;51.872;4.460;2023-07-29T10:05:06;100920.84;;;18.49;100.00
74594;BME280;63097;51.872;4.460;2023-07-29T10:07:33;100913.00;;;18.46;99.30
74594;BME280;63097;51.872;4.460;2023-07-29T10:09:58;100904.13;;;18.34;99.73
74594;BME280;63097;51.872;4.460;2023-07-29T10:12:24;100916.09;;;18.44;100.00
74594;BME280;63097;51.872;4.460;2023-07-29T10:14:50;100910.59;;;18.34;100.00
74594;BME280;63097;51.872;4.460;2023-07-29T10:17:15;100902.75;;;18.31;100.00
74594;BME280;63097;51.872;4.460;2023-07-29T10:19:41;100923.75;;;18.20;100.00
74594;BME280;63097;51.872;4.460;2023-07-29T10:22:07;100919.66;;;18.07;100.00
74594;BME280;63097;51.872;4.460;2023-07-29T10:24:33;100917.59;;;17.94;100.00
74594;BME280;63097;51.872;4.460;2023-07-29T10:27:00;100917.69;;;17.84;100.00
74594;BME280;63097;51.872;4.460;2023-07-29T10:29:31;100918.31;;;17.81;100.00
74594;BME280;63097;51.872;4.460;2023-07-29T10:31:57;100917.69;;;17.84;100.00
74594;BME280;63097;51.872;4.460;2023-07-29T10:34:26;100921.13;;;17.81;100.00
74594;BME280;63097;51.872;4.460;2023-07-29T10:36:52;100913.50;;;17.82;100.00
74594;BME280;63097;51.872;4.460;2023-07-29T10:39:18;100922.97;;;17.91;100.00
74594;BME280;63097;51.872;4.460;2023-07-29T10:42:09;100929.06;;;18.22;100.00
74594;BME280;63097;51.872;4.460;2023-07-29T10:47:17;100932.88;;;18.54;100.00
74594;BME280;63097;51.872;4.460;2023-07-29T10:49:44;100927.81;;;18.33;100.00
74594;BME280;63097;51.872;4.460;2023-07-29T10:52:14;100923.59;;;18.30;100.00
74594;BME280;63097;51.872;4.460;2023-07-29T10:54:43;100926.28;;;18.40;100.00
74594;BME280;63097;51.872;4.460;2023-07-29T10:57:16;100930.28;;;18.58;100.00
74594;BME280;63097;51.872;4.460;2023-07-29T10:59:55;100900.41;;;19.58;100.00
74594;BME280;63097;51.872;4.460;2023-07-29T11:02:28;100919.72;;;20.73;95.66
74594;BME280;63097;51.872;4.460;2023-07-29T11:04:54;100912.53;;;21.03;93.87
74594;BME280;63097;51.872;4.460;2023-07-29T11:07:21;100907.94;;;22.38;91.11
74594;BME280;63097;51.872;4.460;2023-07-29T11:12:45;100918.06;;;21.08;87.74
74594;BME280;63097;51.872;4.460;2023-07-29T11:20:09;100910.66;;;21.43;84.94
74594;BME280;63097;51.872;4.460;2023-07-29T11:22:39;100915.13;;;21.13;86.62
74594;BME280;63097;51.872;4.460;2023-07-29T11:25:05;100905.00;;;20.98;89.57
74594;BME280;63097;51.872;4.460;2023-07-29T11:27:32;100902.03;;;20.81;89.39
74594;BME280;63097;51.872;4.460;2023-07-29T11:29:59;100909.47;;;20.28;88.63
74594;BME280;63097;51.872;4.460;2023-07-29T11:32:25;100906.31;;;20.16;91.21
74594;BME280;63097;51.872;4.460;2023-07-29T11:34:50;100895.44;;;19.82;93.90
74594;BME280;63097;51.872;4.460;2023-07-29T11:37:16;100908.72;;;19.68;93.92
74594;BME280;63097;51.872;4.460;2023-07-29T11:39:43;100902.66;;;20.02;92.25
74594;BME280;63097;51.872;4.460;2023-07-29T11:42:12;100910.81;;;20.80;90.39
74594;BME280;63097;51.872;4.460;2023-07-29T11:44:38;100921.50;;;20.83;85.86
74594;BME280;63097;51.872;4.460;2023-07-29T11:47:11;100907.53;;;21.00;85.82
74594;BME280;63097;51.872;4.460;2023-07-29T11:49:38;100912.06;;;20.87;86.45
74594;BME280;63097;51.872;4.460;2023-07-29T11:52:09;100913.31;;;20.81;85.81
74594;BME280;63097;51.872;4.460;2023-07-29T11:54:39;100901.41;;;20.35;85.06
74594;BME280;63097;51.872;4.460;2023-07-29T11:57:08;100930.75;;;20.61;86.92
74594;BME280;63097;51.872;4.460;2023-07-29T11:59:35;100928.97;;;20.65;86.88
74594;BME280;63097;51.872;4.460;2023-07-29T12:02:01;100927.19;;;21.05;84.76
74594;BME280;63097;51.872;4.460;2023-07-29T12:04:27;100912.06;;;20.87;84.58
74594;BME280;63097;51.872;4.460;2023-07-29T12:06:52;100893.88;;;21.77;80.88
74594;BME280;63097;51.872;4.460;2023-07-29T12:09:18;100899.34;;;23.37;71.60
74594;BME280;63097;51.872;4.460;2023-07-29T12:11:44;100906.19;;;24.08;71.42
74594;BME280;63097;51.872;4.460;2023-07-29T12:14:09;100905.97;;;23.67;71.31
74594;BME280;63097;51.872;4.460;2023-07-29T12:16:42;100920.56;;;23.06;75.08
74594;BME280;63097;51.872;4.460;2023-07-29T12:19:08;100907.16;;;22.55;73.25
74594;BME280;63097;51.872;4.460;2023-07-29T12:21:33;100895.13;;;22.32;74.41
74594;BME280;63097;51.872;4.460;2023-07-29T12:23:59;100915.56;;;21.81;76.56
74594;BME280;63097;51.872;4.460;2023-07-29T12:26:28;100916.25;;;21.87;77.35
74594;BME280;63097;51.872;4.460;2023-07-29T12:28:53;100897.72;;;23.91;68.24
74594;BME280;63097;51.872;4.460;2023-07-29T12:31:18;100909.34;;;24.44;67.07
74594;BME280;63097;51.872;4.460;2023-07-29T12:33:44;100909.19;;;23.23;69.62
74594;BME280;63097;51.872;4.460;2023-07-29T12:36:09;100893.19;;;23.44;66.57
74594;BME280;63097;51.872;4.460;2023-07-29T12:38:35;100899.00;;;22.62;71.42
74594;BME280;63097;51.872;4.460;2023-07-29T12:41:01;100909.13;;;21.89;74.01
74594;BME280;63097;51.872;4.460;2023-07-29T12:43:26;100893.19;;;21.71;75.43
74594;BME280;63097;51.872;4.460;2023-07-29T12:45:52;100896.34;;;23.51;72.31
74594;BME280;63097;51.872;4.460;2023-07-29T12:48:17;100908.34;;;25.64;62.98
74594;BME280;63097;51.872;4.460;2023-07-29T12:50:43;100902.59;;;25.84;58.89
74594;BME280;63097;51.872;4.460;2023-07-29T12:53:09;100904.38;;;25.44;61.69
74594;BME280;63097;51.872;4.460;2023-07-29T12:55:34;100905.88;;;26.07;57.93